Etusivu
METAR-TAF:

METAR-TAF

Lentoasemat :

Mwanza, Tansania

Leveyspiiri: 02-28S, Pituuspiiri: 032-55E, korkeus merenpinnasta: 1139 m

Tämänhetkinen sää

Tämä raportti tehtiin 4 tuntia ja 52 minuuttia sitten, kello 13.00 UTC
Tuuli 13 kn etelästä/lounaasta
Lämpötila 30°C
Kosteus 38%
Ilmanpaine 1016 hPa
Näkyvyys 10 km tai enemmän
ei pilviä alle 1500 m:ssä eikä cumulonimbus-pilviä

METAR: HTMW 131300Z 20013KT CAVOK 30/14 Q1016 NOSIG

Aika: 20:52 (17:52 UTC)

Sääennuste

Tämä raportti tehtiin 6 tuntia ja 52 minuuttia sitten, kello 11.00 UTC
Ennuste voimassa 13. päivästä klo 12 UTC - 14. päivään klo 12 UTC
Tuuli 10 kn pohjoisen/luoteesta
Näkyvyys 10 km tai enemmän
Muutamia pilviä 2700 ft:n korkeudessa
Muutamia pilviä 2800 ft:n korkeudessa, Cumulonimbus.
Tulossa
14. päivästä klo 04 UTC - 14. päivään klo 06 UTC
Tuuli 10 kn kaakosta

TAF: HTMW 131100Z 1312/1412 33010KT 9999 FEW027 FEW028CB BECMG 1404/1406 14010KT

Säähavainnot ja -ennusteet yli 4000 lentoasemalta (METAR- ja TAF-raportit).

Käytössä olevat sääasemat on merkitty karttaan keltaisilla ja punaisilla pisteillä.

Aseta hiiri pisteen päälle nähdäksesi sääaseman nimen.

Klikkaa sitten nähdäksesi säähavainnot ja -ennusteet.

Kartan vaihtaminen: klikkaa mustalla rastilla varustettuja vihreitä pisteitä, niin voit zoomata sisään; viivalla varustettua vihreää pistettä, niin voit zoomata ulos tai vihreitä nuolia, niin pääset viereisille kartoille.


METAR-TAF: